Time;durP1;ratioP1;P1;durP2;ratioP2;P2;SDS_P1;SDS_P2;PMS_P1;PMS_P2;Temp;Humidity;BMP_temperature;BMP_pressure;BME280_temperature;BME280_humidity;BME280_pressure;Samples;Min_cycle;Max_cycle;Signal;HPM_P1;HPM_P2
2021/09/14 00:00:53;;;;;;;;;37.33;34.33;25.20;34.40;;;;;;5034365;28;8789;-65
2021/09/14 00:03:19;;;;;;;;;43.67;38.00;25.20;34.50;;;;;;5034973;28;8793;-63
2021/09/14 00:05:45;;;;;;;;;40.33;37.00;25.10;34.40;;;;;;5038159;28;9400;-62
2021/09/14 00:08:11;;;;;;;;;40.33;37.00;25.10;34.50;;;;;;5038148;28;8847;-64
2021/09/14 00:10:36;;;;;;;;;42.00;37.33;25.00;34.80;;;;;;5038320;28;8874;-63
2021/09/14 00:13:02;;;;;;;;;38.33;35.33;24.90;34.80;;;;;;5038395;28;8871;-63
2021/09/14 00:15:28;;;;;;;;;41.33;37.00;24.80;34.60;;;;;;5038290;28;8843;-64
2021/09/14 00:17:54;;;;;;;;;36.67;34.33;24.80;34.60;;;;;;5037994;28;8893;-63
2021/09/14 00:20:20;;;;;;;;;36.33;34.00;24.80;34.70;;;;;;5037887;28;8815;-64
2021/09/14 00:22:45;;;;;;;;;41.33;36.67;24.80;35.80;;;;;;5037826;28;8915;-64
2021/09/14 00:25:13;;;;;;;;;37.00;34.00;24.80;34.90;;;;;;5038092;28;8777;-64
2021/09/14 00:27:39;;;;;;;;;41.33;36.00;24.80;35.00;;;;;;5038009;28;8782;-63
2021/09/14 00:30:05;;;;;;;;;40.33;36.33;24.80;34.90;;;;;;5037997;28;8781;-63
2021/09/14 00:32:30;;;;;;;;;40.33;36.33;24.80;34.80;;;;;;5038003;28;8761;-64
2021/09/14 00:34:56;;;;;;;;;39.67;35.33;24.80;34.80;;;;;;5037697;28;8769;-63
2021/09/14 00:37:22;;;;;;;;;42.67;38.00;24.90;34.80;;;;;;5037643;28;8774;-63
2021/09/14 00:39:48;;;;;;;;;42.33;36.67;24.80;34.70;;;;;;5037841;28;8789;-64
2021/09/14 00:42:13;;;;;;;;;36.00;34.00;24.70;35.10;;;;;;5037315;28;9692;-63
2021/09/14 00:44:39;;;;;;;;;39.33;36.00;24.70;35.20;;;;;;5037418;28;8785;-63
2021/09/14 00:47:05;;;;;;;;;36.00;34.00;24.70;35.20;;;;;;5037432;28;8820;-63
2021/09/14 00:49:31;;;;;;;;;36.67;34.00;24.60;35.30;;;;;;5037648;28;8769;-64
2021/09/14 00:51:57;;;;;;;;;34.00;33.00;24.60;35.30;;;;;;5037406;28;8912;-63
2021/09/14 00:54:23;;;;;;;;;37.00;34.67;24.70;35.20;;;;;;5037259;28;8844;-63
2021/09/14 00:56:49;;;;;;;;;34.00;33.00;24.60;36.30;;;;;;5037267;28;8765;-64
2021/09/14 00:59:15;;;;;;;;;35.33;33.33;24.70;35.30;;;;;;5037239;28;8867;-64
2021/09/14 01:01:41;;;;;;;;;35.67;33.33;24.60;35.30;;;;;;5037329;28;8794;-63
2021/09/14 01:04:07;;;;;;;;;34.67;33.33;24.50;35.20;;;;;;5037416;28;8770;-64
2021/09/14 01:06:34;;;;;;;;;35.00;33.33;24.50;35.20;;;;;;5037153;28;8758;-64
2021/09/14 01:09:03;;;;;;;;;33.67;32.33;24.50;35.30;;;;;;5037282;28;8782;-63
2021/09/14 01:11:30;;;;;;;;;37.00;34.00;24.60;35.30;;;;;;5037047;28;8817;-64
2021/09/14 01:14:04;;;;;;;;;43.00;37.67;24.60;35.30;;;;;;5036463;28;8769;-64
2021/09/14 01:16:32;;;;;;;;;42.33;37.67;24.60;35.30;;;;;;5037120;28;8871;-64
2021/09/14 01:18:59;;;;;;;;;31.33;31.00;24.60;35.30;;;;;;5036860;28;8762;-63
2021/09/14 01:21:25;;;;;;;;;37.33;35.00;24.60;35.30;;;;;;5037027;28;8848;-63
2021/09/14 01:23:52;;;;;;;;;31.67;31.33;24.50;35.30;;;;;;5037040;28;8785;-64
2021/09/14 01:26:18;;;;;;;;;34.00;33.00;24.50;35.30;;;;;;5036974;28;8800;-63
2021/09/14 01:28:43;;;;;;;;;35.33;33.67;24.60;35.30;;;;;;5036702;28;8757;-63
2021/09/14 01:31:09;;;;;;;;;31.33;31.00;24.70;35.30;;;;;;5036553;28;8789;-63
2021/09/14 01:33:35;;;;;;;;;34.00;33.00;24.70;35.40;;;;;;5036623;28;8766;-63
2021/09/14 01:36:01;;;;;;;;;38.00;35.00;24.60;35.30;;;;;;5036509;28;8800;-64
2021/09/14 01:38:26;;;;;;;;;38.67;35.33;24.50;35.30;;;;;;5036748;28;8765;-63
2021/09/14 01:40:53;;;;;;;;;37.33;34.33;24.50;35.30;;;;;;5036521;28;8762;-64
2021/09/14 01:43:19;;;;;;;;;36.00;33.67;24.50;35.30;;;;;;5036053;28;8834;-64
2021/09/14 01:45:45;;;;;;;;;39.00;36.00;24.50;35.60;;;;;;5036602;28;8777;-63
2021/09/14 01:48:11;;;;;;;;;27.33;27.33;24.50;35.60;;;;;;5036634;28;9352;-63
2021/09/14 01:50:37;;;;;;;;;35.00;33.33;24.60;35.50;;;;;;5036248;28;8762;-64
2021/09/14 01:53:04;;;;;;;;;33.67;32.33;24.60;35.30;;;;;;5036208;28;8785;-63
2021/09/14 01:55:30;;;;;;;;;35.67;33.33;24.50;35.60;;;;;;5036182;28;8781;-63
2021/09/14 01:57:56;;;;;;;;;33.33;32.33;24.40;35.70;;;;;;5036359;28;8777;-64
2021/09/14 02:00:29;;;;;;;;;32.67;31.67;24.40;36.00;;;;;;5036092;28;8926;-63
2021/09/14 02:03:09;;;;;;;;;36.67;34.67;24.30;36.20;;;;;;5035967;28;8820;-64
2021/09/14 02:06:14;;;;;;;;;38.67;35.67;24.40;36.20;;;;;;5035931;28;8843;-65
2021/09/14 02:39:30;;;;;;;;;29.00;29.00;24.00;36.80;;;;;;5013633;28;8802;-63
2021/09/14 03:01:07;;;;;;;;;30.00;30.00;23.80;37.30;;;;;;5015278;28;8831;-62
2021/09/14 03:03:34;;;;;;;;;34.00;33.00;23.70;37.40;;;;;;5015064;28;8819;-62
2021/09/14 03:06:00;;;;;;;;;29.67;29.67;23.70;37.50;;;;;;5015422;28;8846;-61
2021/09/14 03:08:27;;;;;;;;;32.33;31.33;23.80;37.40;;;;;;5015322;28;8776;-61
2021/09/14 03:10:52;;;;;;;;;31.33;31.33;23.70;37.40;;;;;;5015050;28;8780;-61
2021/09/14 03:13:19;;;;;;;;;30.67;30.67;23.70;37.50;;;;;;5015391;28;8816;-62
2021/09/14 03:15:44;;;;;;;;;25.67;25.67;23.60;37.60;;;;;;5015187;28;8798;-62
2021/09/14 03:18:10;;;;;;;;;31.33;31.00;23.50;37.80;;;;;;5014976;28;8784;-61
2021/09/14 03:20:36;;;;;;;;;28.33;28.33;23.60;37.70;;;;;;5014902;28;8784;-62
2021/09/14 03:23:02;;;;;;;;;30.67;30.67;23.60;37.70;;;;;;5015062;28;8811;-61
2021/09/14 03:25:28;;;;;;;;;32.00;32.00;23.50;37.80;;;;;;5014950;28;9430;-61
2021/09/14 03:27:54;;;;;;;;;29.33;29.33;23.50;37.80;;;;;;5015004;28;8900;-61
2021/09/14 03:30:20;;;;;;;;;28.33;28.33;23.50;37.80;;;;;;5015033;28;8792;-62
2021/09/14 03:32:45;;;;;;;;;28.33;28.33;23.60;37.70;;;;;;5014718;28;8780;-61
2021/09/14 03:35:11;;;;;;;;;30.67;30.67;23.60;37.70;;;;;;5014700;28;8776;-61
2021/09/14 03:37:37;;;;;;;;;29.33;29.33;23.50;37.80;;;;;;5014543;28;8854;-60
2021/09/14 03:51:41;;;;;;;;;21.33;21.33;23.50;37.00;;;;;;5129532;27;13457;-62
2021/09/14 03:54:07;;;;;;;;;28.67;28.67;23.50;38.10;;;;;;5132667;27;8793;-63
2021/09/14 03:56:33;;;;;;;;;30.33;30.33;23.40;38.10;;;;;;5132913;27;8831;-62
2021/09/14 03:58:58;;;;;;;;;31.67;31.67;23.50;38.00;;;;;;5132754;27;9405;-62
2021/09/14 04:01:24;;;;;;;;;28.67;28.33;23.40;38.20;;;;;;5132479;27;8755;-62
2021/09/14 04:04:07;;;;;;;;;29.33;29.33;23.40;38.20;;;;;;5132680;27;8778;-62
2021/09/14 04:06:52;;;;;;;;;28.00;28.00;23.20;38.50;;;;;;5132734;27;8750;-62
2021/09/14 04:09:18;;;;;;;;;30.00;30.00;23.30;38.60;;;;;;5132686;27;9420;-61
2021/09/14 04:11:44;;;;;;;;;29.67;29.67;23.30;38.50;;;;;;5132436;27;8759;-62
2021/09/14 04:14:10;;;;;;;;;28.33;28.33;23.30;38.50;;;;;;5132245;27;8755;-61
2021/09/14 04:16:35;;;;;;;;;31.00;31.00;23.20;38.60;;;;;;5132488;27;8759;-61
2021/09/14 04:19:01;;;;;;;;;34.33;33.00;23.30;38.60;;;;;;5132026;27;8743;-62
2021/09/14 04:21:27;;;;;;;;;28.00;28.00;23.30;39.50;;;;;;5132381;27;8767;-62
2021/09/14 04:23:53;;;;;;;;;30.33;30.33;23.40;38.60;;;;;;5132452;27;8743;-62
2021/09/14 04:26:18;;;;;;;;;28.67;28.67;23.40;38.60;;;;;;5132286;27;9662;-62
2021/09/14 04:28:44;;;;;;;;;33.33;32.67;23.40;38.50;;;;;;5132326;27;8783;-62
2021/09/14 04:31:10;;;;;;;;;32.67;32.33;23.40;38.50;;;;;;5132135;27;8763;-62
2021/09/14 04:33:36;;;;;;;;;32.33;32.33;23.30;38.70;;;;;;5132405;27;8794;-61
2021/09/14 04:36:01;;;;;;;;;27.33;27.33;23.20;38.90;;;;;;5131746;27;8758;-62
2021/09/14 04:38:27;;;;;;;;;28.33;28.33;23.30;39.00;;;;;;5129696;27;8804;-62
2021/09/14 04:40:53;;;;;;;;;30.67;30.67;23.30;38.80;;;;;;5118201;28;8799;-61
2021/09/14 04:43:19;;;;;;;;;32.00;32.00;23.40;38.80;;;;;;5120363;28;8777;-62
2021/09/14 04:45:44;;;;;;;;;27.67;26.67;23.40;38.60;;;;;;5111194;28;8789;-62
2021/09/14 04:48:10;;;;;;;;;32.33;31.67;23.50;38.70;;;;;;5111243;28;8865;-62
2021/09/14 04:50:37;;;;;;;;;27.33;27.33;23.50;38.70;;;;;;5109152;28;8825;-62
2021/09/14 04:53:03;;;;;;;;;29.00;29.00;23.40;38.60;;;;;;5097246;28;8787;-62
2021/09/14 04:55:29;;;;;;;;;30.67;30.67;23.40;38.90;;;;;;5097345;28;8777;-61
2021/09/14 04:57:55;;;;;;;;;25.00;25.00;23.40;38.70;;;;;;5097223;28;8769;-63
2021/09/14 05:00:21;;;;;;;;;24.67;24.67;23.40;38.60;;;;;;5097152;28;8836;-62
2021/09/14 05:02:47;;;;;;;;;27.33;27.33;23.40;38.90;;;;;;5097505;28;8807;-63
2021/09/14 05:05:13;;;;;;;;;28.67;28.67;23.40;39.00;;;;;;5108053;28;8769;-64
2021/09/14 05:07:39;;;;;;;;;27.33;27.33;23.50;38.70;;;;;;5108381;28;8775;-63
2021/09/14 05:10:05;;;;;;;;;28.67;28.67;23.60;38.60;;;;;;5096901;28;8766;-63
2021/09/14 05:12:31;;;;;;;;;33.33;32.33;23.60;38.40;;;;;;5120944;27;8856;-63
2021/09/14 05:14:57;;;;;;;;;28.67;28.67;23.70;38.60;;;;;;5126822;27;8772;-63
2021/09/14 05:17:23;;;;;;;;;29.67;29.67;23.90;38.30;;;;;;5126544;27;8798;-64
2021/09/14 05:19:50;;;;;;;;;29.67;29.67;23.80;38.20;;;;;;5125789;27;8840;-62
2021/09/14 05:22:20;;;;;;;;;28.67;28.67;23.90;38.30;;;;;;5126360;27;8773;-63
2021/09/14 05:24:46;;;;;;;;;29.67;29.67;23.80;38.20;;;;;;5125908;27;8787;-63
2021/09/14 05:27:12;;;;;;;;;32.00;31.33;23.90;38.30;;;;;;5124435;27;8780;-62
2021/09/14 05:29:38;;;;;;;;;30.33;30.33;23.90;38.30;;;;;;5123749;27;8870;-63
2021/09/14 05:32:05;;;;;;;;;32.33;31.67;24.00;38.20;;;;;;5124968;27;9582;-62
2021/09/14 05:34:32;;;;;;;;;35.00;32.67;24.00;38.30;;;;;;5124297;27;8776;-62
2021/09/14 05:36:58;;;;;;;;;33.00;32.33;24.00;38.10;;;;;;5123129;27;9408;-63
2021/09/14 05:39:24;;;;;;;;;35.33;34.33;23.90;38.20;;;;;;5121435;27;9465;-64
2021/09/14 05:41:50;;;;;;;;;28.67;28.67;23.90;38.50;;;;;;5123152;27;8877;-63
2021/09/14 05:44:16;;;;;;;;;28.33;28.33;23.90;38.50;;;;;;5118915;27;8791;-62
2021/09/14 05:46:41;;;;;;;;;30.33;30.33;24.00;38.60;;;;;;5118942;27;8814;-63
2021/09/14 05:49:07;;;;;;;;;25.00;25.00;24.00;38.50;;;;;;5119160;27;8911;-62
2021/09/14 05:51:33;;;;;;;;;29.33;29.33;24.10;38.50;;;;;;5118837;27;8861;-63
2021/09/14 05:53:59;;;;;;;;;32.33;31.67;24.10;38.60;;;;;;5118870;27;9223;-63
2021/09/14 05:56:30;;;;;;;;;35.33;34.33;24.20;38.60;;;;;;5128508;27;8806;-64
2021/09/14 05:58:57;;;;;;;;;32.67;31.67;24.10;38.60;;;;;;5118220;27;8811;-63
2021/09/14 06:01:23;;;;;;;;;39.00;35.00;24.20;38.80;;;;;;5118053;27;8825;-63
2021/09/14 06:03:48;;;;;;;;;31.67;31.33;24.30;38.80;;;;;;5118255;27;8752;-64
2021/09/14 06:06:14;;;;;;;;;27.67;27.67;24.50;38.60;;;;;;5120633;27;8764;-63
2021/09/14 06:08:40;;;;;;;;;33.67;32.67;24.60;38.40;;;;;;5118788;27;8870;-64
2021/09/14 06:11:06;;;;;;;;;33.00;31.33;24.70;38.20;;;;;;5122528;27;8768;-63
2021/09/14 06:13:31;;;;;;;;;25.33;25.33;24.70;37.80;;;;;;5124110;27;8825;-64
2021/09/14 06:15:57;;;;;;;;;28.67;28.67;24.70;37.70;;;;;;5123678;27;8760;-63
2021/09/14 06:18:23;;;;;;;;;30.00;30.00;24.70;37.80;;;;;;5121063;27;8780;-63
2021/09/14 06:20:49;;;;;;;;;29.33;29.33;24.70;37.80;;;;;;5124274;27;8836;-64
2021/09/14 06:23:14;;;;;;;;;26.33;26.33;24.90;37.80;;;;;;5123646;27;8761;-63
2021/09/14 06:25:40;;;;;;;;;28.67;28.67;25.00;37.50;;;;;;5121248;27;8903;-61
2021/09/14 06:28:06;;;;;;;;;25.67;25.67;24.90;37.60;;;;;;5116328;27;8805;-63
2021/09/14 06:30:32;;;;;;;;;28.67;28.67;24.80;37.60;;;;;;5123887;27;8781;-62
2021/09/14 06:32:58;;;;;;;;;27.67;27.67;24.90;37.70;;;;;;5119267;27;8765;-62
2021/09/14 06:35:24;;;;;;;;;26.33;26.33;25.00;37.80;;;;;;5123392;27;8784;-63
2021/09/14 06:37:49;;;;;;;;;28.00;28.00;25.00;37.90;;;;;;5119696;27;8763;-62
2021/09/14 06:40:15;;;;;;;;;31.00;31.00;25.10;37.50;;;;;;5115417;27;8797;-61
2021/09/14 06:42:41;;;;;;;;;25.33;25.33;25.10;37.60;;;;;;5120921;27;9586;-62
2021/09/14 06:45:07;;;;;;;;;25.67;25.67;25.20;37.50;;;;;;5119854;27;8795;-62
2021/09/14 06:47:33;;;;;;;;;26.00;26.00;25.30;37.60;;;;;;5120923;27;8909;-62
2021/09/14 06:49:59;;;;;;;;;29.00;29.00;25.30;37.60;;;;;;5119086;27;8975;-63
2021/09/14 06:52:25;;;;;;;;;28.67;28.67;25.30;37.80;;;;;;5121576;27;8768;-62
2021/09/14 06:54:50;;;;;;;;;22.33;22.33;25.40;37.70;;;;;;5120395;27;9515;-61
2021/09/14 06:57:19;;;;;;;;;27.33;27.33;25.40;37.30;;;;;;5117785;27;9425;-62
2021/09/14 06:59:45;;;;;;;;;21.67;21.67;25.40;37.50;;;;;;5122846;27;8863;-61
2021/09/14 07:02:11;;;;;;;;;27.00;27.00;25.40;37.30;;;;;;5123379;27;8768;-62
2021/09/14 07:04:36;;;;;;;;;27.33;27.33;25.40;37.10;;;;;;5123002;27;9439;-63
2021/09/14 07:07:02;;;;;;;;;26.67;26.67;25.50;37.20;;;;;;5122731;27;8784;-62
2021/09/14 07:09:28;;;;;;;;;25.67;25.67;25.50;38.10;;;;;;5122577;27;8923;-61
2021/09/14 07:11:53;;;;;;;;;25.00;25.00;25.50;37.00;;;;;;5122950;27;8773;-61
2021/09/14 07:14:19;;;;;;;;;26.00;26.00;25.70;37.00;;;;;;5122022;27;8780;-61
2021/09/14 07:16:45;;;;;;;;;28.33;28.33;25.80;36.90;;;;;;5122993;27;8787;-61
2021/09/14 07:19:11;;;;;;;;;25.67;25.67;25.90;36.60;;;;;;5122491;27;8923;-61
2021/09/14 07:21:36;;;;;;;;;30.33;30.33;26.00;37.60;;;;;;5123021;27;8760;-62
2021/09/14 07:24:02;;;;;;;;;28.67;28.67;26.20;36.40;;;;;;5122822;27;8788;-60
2021/09/14 07:39:49;;;;;;;;;26.00;26.00;26.10;35.40;;;;;;5117593;27;14073;-62
2021/09/14 07:42:15;;;;;;;;;25.33;25.33;26.50;35.50;;;;;;5123367;27;8819;-62
2021/09/14 07:44:40;;;;;;;;;26.33;26.33;26.50;35.40;;;;;;5120070;27;8784;-62
2021/09/14 07:47:06;;;;;;;;;25.33;25.33;26.50;35.30;;;;;;5124150;27;8866;-62
2021/09/14 07:49:32;;;;;;;;;27.00;27.00;26.50;35.30;;;;;;5132374;27;8876;-63
2021/09/14 07:51:58;;;;;;;;;23.33;22.33;26.70;35.30;;;;;;5117075;27;8780;-62
2021/09/14 07:54:24;;;;;;;;;23.67;23.67;26.80;35.20;;;;;;5118080;27;8790;-62
2021/09/14 07:56:50;;;;;;;;;24.00;24.00;26.90;35.10;;;;;;5119810;27;8785;-62
2021/09/14 07:59:16;;;;;;;;;24.00;24.00;26.90;35.20;;;;;;5121210;27;8900;-63
2021/09/14 08:01:41;;;;;;;;;21.67;21.67;26.90;35.10;;;;;;5118933;28;10507;-62
2021/09/14 08:04:08;;;;;;;;;24.33;24.33;27.00;35.10;;;;;;5119406;28;8764;-62
2021/09/14 08:06:34;;;;;;;;;25.67;25.00;27.10;34.90;;;;;;5111676;28;8874;-63
2021/09/14 08:09:00;;;;;;;;;22.67;22.67;27.20;34.90;;;;;;5111833;28;8954;-63
2021/09/14 08:11:25;;;;;;;;;26.33;26.33;27.20;34.90;;;;;;5111886;28;8768;-63
2021/09/14 08:13:51;;;;;;;;;26.00;26.00;27.30;35.00;;;;;;5111393;28;8799;-64
2021/09/14 08:16:18;;;;;;;;;27.67;27.67;27.40;34.80;;;;;;5117893;28;8842;-63
2021/09/14 08:18:44;;;;;;;;;27.67;27.67;27.40;34.70;;;;;;5117725;27;8822;-64
2021/09/14 08:21:10;;;;;;;;;25.33;25.33;27.60;34.60;;;;;;5123871;28;8915;-61
2021/09/14 08:23:36;;;;;;;;;22.00;22.00;27.70;34.50;;;;;;5125506;27;8770;-62
2021/09/14 08:26:03;;;;;;;;;25.00;25.00;27.80;34.40;;;;;;5132049;27;8791;-61
2021/09/14 08:28:29;;;;;;;;;26.00;26.00;27.80;34.30;;;;;;5116130;28;8744;-61
2021/09/14 08:30:56;;;;;;;;;25.00;25.00;28.00;34.30;;;;;;5090830;28;8752;-61
2021/09/14 08:33:22;;;;;;;;;23.00;23.00;28.00;33.60;;;;;;5111708;28;8800;-62
2021/09/14 08:35:48;;;;;;;;;31.67;30.00;28.00;33.40;;;;;;5123247;27;8757;-62
2021/09/14 08:38:14;;;;;;;;;23.00;23.00;28.10;33.60;;;;;;5119776;28;8859;-62
2021/09/14 08:40:43;;;;;;;;;27.33;27.33;28.20;33.20;;;;;;5104183;28;8798;-65
2021/09/14 08:43:11;;;;;;;;;22.33;22.33;28.20;33.10;;;;;;5117686;28;8766;-62
2021/09/14 08:45:37;;;;;;;;;25.67;25.67;28.30;33.00;;;;;;5117728;28;8804;-63
2021/09/14 08:48:04;;;;;;;;;37.33;34.33;28.30;33.10;;;;;;5117881;28;9480;-62
2021/09/14 08:50:30;;;;;;;;;23.00;23.00;28.40;33.00;;;;;;5117888;28;8781;-62
2021/09/14 08:52:56;;;;;;;;;28.33;28.33;28.60;32.60;;;;;;5117545;28;8785;-62
2021/09/14 08:55:22;;;;;;;;;28.00;27.00;28.70;32.60;;;;;;5117699;28;8850;-62
2021/09/14 08:57:52;;;;;;;;;33.00;31.00;28.70;32.30;;;;;;5113229;28;9473;-67
2021/09/14 09:00:30;;;;;;;;;26.67;26.67;28.80;32.30;;;;;;5076856;28;8740;-64
2021/09/14 09:02:56;;;;;;;;;20.33;20.33;28.80;32.10;;;;;;5076685;28;8775;-64
2021/09/14 09:05:33;;;;;;;;;36.67;33.67;28.90;31.80;;;;;;5076908;28;8764;-66
2021/09/14 09:13:56;;;;;;;;;28.33;28.33;29.20;31.30;;;;;;5433637;23;8925;-66
2021/09/14 09:16:27;;;;;;;;;24.00;24.00;29.30;31.60;;;;;;4991707;28;8792;-65
2021/09/14 09:19:01;;;;;;;;;23.00;23.00;29.40;31.20;;;;;;4978176;28;8820;-64
2021/09/14 09:21:33;;;;;;;;;22.33;22.33;29.40;31.00;;;;;;4960410;28;8798;-67
2021/09/14 09:24:02;;;;;;;;;25.00;25.00;29.50;30.70;;;;;;4977744;28;8857;-67
2021/09/14 09:26:34;;;;;;;;;26.67;26.67;29.60;30.80;;;;;;4977615;28;8775;-68
2021/09/14 09:29:04;;;;;;;;;18.33;18.33;29.70;30.60;;;;;;4977356;28;8785;-66
2021/09/14 09:31:30;;;;;;;;;21.00;21.00;29.80;30.40;;;;;;4977340;28;8785;-65
2021/09/14 09:34:07;;;;;;;;;27.00;25.67;29.90;30.60;;;;;;4977273;28;8885;-64
2021/09/14 09:36:36;;;;;;;;;22.33;22.33;29.90;30.60;;;;;;4977523;28;8774;-64
2021/09/14 09:39:04;;;;;;;;;24.00;24.00;30.00;30.00;;;;;;4977122;28;8836;-67
2021/09/14 09:41:39;;;;;;;;;23.67;23.67;30.00;30.00;;;;;;4977169;28;8759;-63
2021/09/14 09:44:08;;;;;;;;;22.67;22.67;30.20;29.80;;;;;;4995879;28;8804;-62
2021/09/14 09:46:35;;;;;;;;;24.00;24.00;30.30;29.80;;;;;;4996757;28;8772;-64
2021/09/14 09:49:03;;;;;;;;;26.67;26.67;30.40;29.60;;;;;;4996494;28;8895;-65
2021/09/14 09:51:30;;;;;;;;;22.33;22.33;30.50;29.60;;;;;;4995331;28;8784;-64
2021/09/14 09:53:56;;;;;;;;;24.33;24.33;30.70;29.00;;;;;;4996173;28;11518;-64
2021/09/14 09:56:23;;;;;;;;;22.33;22.33;30.80;29.10;;;;;;4996190;28;8887;-66
2021/09/14 09:58:50;;;;;;;;;22.00;22.00;30.90;29.20;;;;;;4996217;28;8808;-64
2021/09/14 10:28:49;;;;;;;;;20.00;20.00;31.80;27.70;;;;;;5162256;27;13452;-63
2021/09/14 10:31:19;;;;;;;;;22.00;22.00;32.70;27.10;;;;;;5150419;27;8764;-65
2021/09/14 10:33:45;;;;;;;;;23.33;23.33;32.90;26.60;;;;;;5130993;27;9412;-62
2021/09/14 10:36:14;;;;;;;;;26.33;26.33;33.10;26.70;;;;;;5151743;27;8903;-61
2021/09/14 10:38:49;;;;;;;;;21.67;21.67;33.30;26.40;;;;;;5151217;27;8756;-61
2021/09/14 10:41:15;;;;;;;;;17.67;17.67;33.50;25.80;;;;;;5150294;27;11567;-62
2021/09/14 10:43:52;;;;;;;;;20.67;20.67;33.70;25.50;;;;;;5152891;27;11405;-62
2021/09/14 10:46:24;;;;;;;;;23.67;23.67;33.90;25.60;;;;;;5144093;27;11406;-61
2021/09/14 10:48:54;;;;;;;;;20.00;20.00;34.20;25.40;;;;;;5142356;27;12038;-62
2021/09/14 10:51:20;;;;;;;;;17.67;17.67;34.30;24.90;;;;;;5148115;27;11525;-61
2021/09/14 10:54:00;;;;;;;;;17.33;17.33;34.40;24.70;;;;;;5134420;27;11570;-61
2021/09/14 10:56:28;;;;;;;;;17.67;17.67;34.60;24.50;;;;;;5146723;27;11491;-64
2021/09/14 10:58:55;;;;;;;;;18.00;18.00;34.70;24.40;;;;;;5140282;27;11433;-63
2021/09/14 11:01:27;;;;;;;;;19.00;19.00;34.50;24.50;;;;;;5152491;27;11518;-62
2021/09/14 11:04:07;;;;;;;;;20.00;20.00;34.80;24.30;;;;;;5152513;27;12145;-62
2021/09/14 11:06:33;;;;;;;;;21.67;21.67;35.10;24.40;;;;;;5152588;27;11418;-62
2021/09/14 11:09:00;;;;;;;;;20.00;20.00;35.40;24.00;;;;;;5138813;27;11537;-62
2021/09/14 11:11:27;;;;;;;;;22.00;22.00;35.70;23.80;;;;;;5138509;27;11466;-62
2021/09/14 11:13:54;;;;;;;;;20.33;20.33;35.90;23.70;;;;;;5137433;27;11445;-61
2021/09/14 11:16:20;;;;;;;;;17.33;17.33;36.10;23.40;;;;;;5138517;27;11470;-61
2021/09/14 11:18:46;;;;;;;;;20.33;20.33;36.30;23.10;;;;;;5140181;27;11425;-62
2021/09/14 11:21:14;;;;;;;;;15.00;15.00;36.50;22.90;;;;;;5131670;27;11430;-63
2021/09/14 11:23:43;;;;;;;;;18.00;18.00;36.60;22.80;;;;;;5132432;27;11441;-63
2021/09/14 11:26:11;;;;;;;;;20.67;20.67;36.90;22.10;;;;;;5152291;27;11467;-63
2021/09/14 11:28:38;;;;;;;;;22.67;22.67;37.10;22.10;;;;;;5144059;27;11443;-62
2021/09/14 11:31:06;;;;;;;;;18.67;18.67;37.30;22.00;;;;;;5129066;27;11470;-63
2021/09/14 11:33:33;;;;;;;;;19.00;19.00;37.40;21.80;;;;;;5124206;27;11496;-62
2021/09/14 11:36:01;;;;;;;;;21.00;21.00;37.50;21.60;;;;;;5129872;27;11431;-64
2021/09/14 11:38:28;;;;;;;;;18.25;18.25;37.80;21.50;;;;;;5127304;27;11444;-63
2021/09/14 11:40:59;;;;;;;;;18.00;18.00;37.90;21.20;;;;;;5131507;27;11445;-64
2021/09/14 11:43:32;;;;;;;;;16.50;16.50;38.00;21.20;;;;;;5131004;27;11542;-62
2021/09/14 11:45:59;;;;;;;;;19.25;19.25;38.00;20.80;;;;;;5124744;27;11577;-62
2021/09/14 11:48:27;;;;;;;;;18.00;18.00;38.20;21.00;;;;;;5136119;27;11444;-62
2021/09/14 11:51:11;;;;;;;;;17.00;17.00;38.40;20.70;;;;;;5117518;28;12116;-62
2021/09/14 11:53:45;;;;;;;;;18.00;18.00;38.50;20.80;;;;;;5132512;27;11420;-63
2021/09/14 11:56:14;;;;;;;;;22.33;22.33;38.50;20.50;;;;;;5133396;27;11574;-62
2021/09/14 11:58:43;;;;;;;;;14.50;14.50;38.80;20.50;;;;;;5121904;27;12221;-62
2021/09/14 12:01:09;;;;;;;;;17.75;17.75;39.10;19.70;;;;;;5124806;27;11429;-61
2021/09/14 12:03:35;;;;;;;;;17.50;17.50;39.30;19.50;;;;;;5127089;27;11488;-59
2021/09/14 12:06:01;;;;;;;;;19.00;19.00;39.70;19.70;;;;;;5126240;27;8781;-61
2021/09/14 12:08:33;;;;;;;;;18.50;18.50;39.80;19.30;;;;;;5116882;28;11429;-60
2021/09/14 12:11:00;;;;;;;;;16.00;16.00;40.70;18.30;;;;;;5129072;27;11514;-59
2021/09/14 12:13:26;;;;;;;;;17.00;17.00;43.80;16.40;;;;;;5136075;27;11507;-62
2021/09/14 12:15:58;;;;;;;;;18.00;18.00;46.60;14.70;;;;;;5136248;27;11408;-62
2021/09/14 12:18:24;;;;;;;;;15.00;15.00;48.10;13.50;;;;;;5136193;27;8965;-62
2021/09/14 12:20:50;;;;;;;;;15.00;15.00;49.70;12.80;;;;;;5134260;27;11457;-60
2021/09/14 12:23:16;;;;;;;;;15.00;15.00;50.40;12.40;;;;;;5135822;27;11542;-61
2021/09/14 12:25:43;;;;;;;;;17.00;17.00;52.20;11.60;;;;;;5136376;27;9628;-62
2021/09/14 12:28:08;;;;;;;;;19.67;19.67;54.10;11.00;;;;;;5135191;27;11483;-62
2021/09/14 12:30:34;;;;;;;;;19.00;19.00;55.40;10.50;;;;;;5134125;27;11426;-62
2021/09/14 12:33:00;;;;;;;;;18.33;18.33;54.90;10.10;;;;;;5135356;27;8874;-62
2021/09/14 12:35:26;;;;;;;;;17.00;17.00;52.20;10.80;;;;;;5135615;27;8780;-61
2021/09/14 12:37:52;;;;;;;;;15.25;15.25;49.30;12.10;;;;;;5135843;27;8790;-60
2021/09/14 12:40:18;;;;;;;;;18.33;18.33;46.60;13.30;;;;;;5134319;27;11422;-59
2021/09/14 12:42:44;;;;;;;;;17.00;17.00;46.70;14.70;;;;;;5133602;27;8894;-61
2021/09/14 12:45:10;;;;;;;;;16.75;16.75;49.20;13.10;;;;;;5135450;27;8755;-63
2021/09/14 12:47:36;;;;;;;;;18.00;18.00;51.40;12.00;;;;;;5135460;27;8792;-64
2021/09/14 12:50:02;;;;;;;;;15.33;15.33;53.20;11.30;;;;;;5135374;27;12056;-62
2021/09/14 12:52:28;;;;;;;;;16.33;16.33;54.30;10.60;;;;;;5135486;27;8771;-63
2021/09/14 12:54:54;;;;;;;;;17.00;17.00;55.10;10.30;;;;;;5135297;27;11410;-63
2021/09/14 12:57:20;;;;;;;;;15.00;15.00;55.10;9.80;;;;;;5136621;27;8939;-63
2021/09/14 12:59:45;;;;;;;;;16.00;15.00;54.20;10.00;;;;;;5122134;27;8760;-64
2021/09/14 13:02:11;;;;;;;;;2.67;2.67;53.70;10.10;;;;;;5116037;28;8759;-63
2021/09/14 13:04:37;;;;;;;;;12.00;12.00;53.90;10.20;;;;;;5115913;28;8781;-63
2021/09/14 13:07:03;;;;;;;;;13.50;13.50;54.60;9.60;;;;;;5115973;27;8897;-65
2021/09/14 13:09:28;;;;;;;;;15.67;15.67;55.10;9.60;;;;;;5115851;28;8759;-63
2021/09/14 13:11:54;;;;;;;;;18.00;16.67;55.50;9.40;;;;;;5115746;28;8863;-63
2021/09/14 13:17:04;;;;;;;;;14.33;14.33;56.20;9.20;;;;;;5120286;27;8774;-62
2021/09/14 13:19:30;;;;;;;;;17.33;17.33;56.20;8.90;;;;;;5122300;27;11515;-63
2021/09/14 13:21:56;;;;;;;;;25.67;25.67;55.70;9.10;;;;;;5115889;28;8777;-63
2021/09/14 13:24:21;;;;;;;;;29.00;28.00;54.90;9.40;;;;;;5115514;28;8773;-61
2021/09/14 13:26:48;;;;;;;;;33.33;30.67;54.30;9.60;;;;;;5115390;28;8825;-60
2021/09/14 13:29:14;;;;;;;;;20.33;20.33;54.30;9.80;;;;;;5125217;27;8853;-62
2021/09/14 13:31:39;;;;;;;;;34.67;31.67;54.00;9.90;;;;;;5135990;27;8906;-62
2021/09/14 13:34:05;;;;;;;;;33.67;31.00;53.80;10.10;;;;;;5135908;27;8774;-62
2021/09/14 13:36:31;;;;;;;;;22.00;21.67;53.20;10.20;;;;;;5135775;27;8790;-63
2021/09/14 13:38:57;;;;;;;;;32.00;29.00;52.50;10.30;;;;;;5135995;27;8760;-62
2021/09/14 13:41:29;;;;;;;;;28.67;26.33;51.60;10.90;;;;;;5135762;27;8782;-62
2021/09/14 13:43:58;;;;;;;;;22.33;22.00;50.80;11.20;;;;;;5135953;27;8775;-63
2021/09/14 13:46:24;;;;;;;;;22.00;22.00;50.00;11.60;;;;;;5135558;27;8853;-62
2021/09/14 13:48:52;;;;;;;;;21.67;21.67;49.40;11.90;;;;;;5135860;27;8759;-64
2021/09/14 13:51:26;;;;;;;;;24.00;24.00;49.10;12.20;;;;;;5132313;27;8881;-61
2021/09/14 13:53:53;;;;;;;;;22.67;21.00;48.10;12.50;;;;;;5124012;27;8781;-61
2021/09/14 13:56:23;;;;;;;;;21.67;21.67;46.80;13.40;;;;;;5115255;28;8859;-62
2021/09/14 13:58:50;;;;;;;;;20.33;20.33;45.30;14.00;;;;;;5120959;27;11412;-61
2021/09/14 14:01:16;;;;;;;;;19.33;19.33;44.00;15.00;;;;;;5135693;27;11420;-63
2021/09/14 14:03:43;;;;;;;;;20.33;20.33;42.90;15.70;;;;;;5135554;27;11460;-62
2021/09/14 14:06:09;;;;;;;;;21.00;21.00;41.80;16.50;;;;;;5135187;27;11415;-61
2021/09/14 14:08:36;;;;;;;;;23.33;23.33;41.10;17.10;;;;;;5135567;27;11440;-61
2021/09/14 14:11:01;;;;;;;;;24.33;24.33;40.40;17.70;;;;;;5135567;27;11551;-61
2021/09/14 14:13:27;;;;;;;;;27.33;27.33;39.70;18.30;;;;;;5135243;27;12045;-61
2021/09/14 14:15:53;;;;;;;;;19.00;19.00;39.20;18.60;;;;;;5130901;27;8772;-61
2021/09/14 14:18:19;;;;;;;;;19.33;19.33;38.90;18.70;;;;;;5121974;27;8795;-62
2021/09/14 14:20:45;;;;;;;;;18.33;18.33;38.70;19.20;;;;;;5134618;27;8778;-63
2021/09/14 14:23:10;;;;;;;;;17.33;17.33;38.60;19.60;;;;;;5134529;27;8883;-61
2021/09/14 14:25:36;;;;;;;;;18.00;18.00;38.40;19.20;;;;;;5135293;27;8747;-62